createdAt,value
2022-12-18T00:02:39.682Z,98679.66
2022-12-18T00:06:43.083Z,98659.69
2022-12-18T00:10:48.200Z,98658.34
2022-12-18T00:14:52.196Z,98659.41
2022-12-18T00:18:57.648Z,98662.75
2022-12-18T00:23:00.322Z,98658.66
2022-12-18T00:27:03.021Z,98666.47
2022-12-18T00:31:09.316Z,98686.50
2022-12-18T00:35:12.199Z,98677.34
2022-12-18T00:39:14.823Z,98683.19
2022-12-18T00:43:17.532Z,98697.19
2022-12-18T00:47:21.588Z,98699.25
2022-12-18T00:51:24.246Z,98701.44
2022-12-18T00:55:26.915Z,98707.47
2022-12-18T00:59:30.956Z,98703.19
2022-12-18T01:03:35.368Z,98691.88
2022-12-18T01:07:38.130Z,98683.75
2022-12-18T01:11:41.898Z,98683.25
2022-12-18T01:15:50.679Z,98675.22
2022-12-18T01:19:56.625Z,98692.69
2022-12-18T01:23:59.297Z,98709.19
2022-12-18T01:28:02.687Z,98700.31
2022-12-18T01:32:05.851Z,98698.44
2022-12-18T01:36:10.937Z,98719.41
2022-12-18T01:40:13.998Z,98721.53
2022-12-18T01:44:53.726Z,98719.13
2022-12-18T01:48:59.901Z,98723.47
2022-12-18T01:53:08.055Z,98727.03
2022-12-18T01:57:11.145Z,98728.72
2022-12-18T02:01:14.382Z,98739.13
2022-12-18T02:05:19.840Z,98725.69
2022-12-18T02:09:30.800Z,98736.78
2022-12-18T02:13:40.689Z,98727.81
2022-12-18T02:17:49.776Z,98737.66
2022-12-18T02:21:59.414Z,98734.94
2022-12-18T02:26:16.504Z,98742.44
2022-12-18T02:30:20.740Z,98727.56
2022-12-18T02:34:28.132Z,98738.72
2022-12-18T02:38:32.523Z,98743.81
2022-12-18T02:42:36.792Z,98744.50
2022-12-18T02:46:42.176Z,98743.88
2022-12-18T02:50:50.883Z,98747.13
2022-12-18T02:55:09.052Z,98741.72
2022-12-18T02:59:19.795Z,98743.25
2022-12-18T03:03:31.415Z,98766.09
2022-12-18T03:07:40.011Z,98753.81
2022-12-18T03:12:04.991Z,98745.81
2022-12-18T03:16:14.081Z,98747.06
2022-12-18T03:20:21.738Z,98740.25
2022-12-18T03:24:26.261Z,98738.41
2022-12-18T03:28:33.578Z,98742.50
2022-12-18T03:32:45.178Z,98726.75
2022-12-18T03:36:48.079Z,98735.59
2022-12-18T03:40:58.062Z,98726.69
2022-12-18T03:45:08.987Z,98717.69
2022-12-18T03:49:19.404Z,98712.22
2022-12-18T03:53:30.917Z,98715.63
2022-12-18T03:57:35.139Z,98710.97
2022-12-18T04:01:41.980Z,98706.41
2022-12-18T04:05:47.729Z,98718.81
2022-12-18T04:09:52.244Z,98741.31
2022-12-18T04:13:58.309Z,98730.88
2022-12-18T04:18:00.989Z,98754.16
2022-12-18T04:22:04.996Z,98746.34
2022-12-18T04:26:08.074Z,98735.94
2022-12-18T04:30:11.504Z,98739.59
2022-12-18T04:34:14.173Z,98741.22
2022-12-18T04:38:18.213Z,98754.31
2022-12-18T04:42:20.838Z,98760.28
2022-12-18T04:46:23.560Z,98753.00
2022-12-18T04:50:26.316Z,98759.25
2022-12-18T04:54:30.330Z,98772.44
2022-12-18T04:58:33.000Z,98766.19
2022-12-18T05:02:35.828Z,98763.53
2022-12-18T05:06:38.528Z,98777.31
2022-12-18T05:10:42.608Z,98772.38
2022-12-18T05:14:45.239Z,98767.94
2022-12-18T05:18:47.891Z,98775.06
2022-12-18T05:22:50.630Z,98775.19
2022-12-18T05:26:54.615Z,98790.13
2022-12-18T05:30:59.352Z,98794.88
2022-12-18T05:35:02.047Z,98794.88
2022-12-18T05:39:04.983Z,98784.63
2022-12-18T05:43:10.079Z,98780.13
2022-12-18T05:47:12.765Z,98795.25
2022-12-18T05:51:17.353Z,98794.63
2022-12-18T05:55:19.980Z,98806.88
2022-12-18T05:59:23.935Z,98804.56
2022-12-18T06:03:32.187Z,98810.88
2022-12-18T06:07:36.396Z,98814.22
2022-12-18T06:11:39.515Z,98807.84
2022-12-18T06:15:43.550Z,98816.72
2022-12-18T06:19:46.150Z,98818.56
2022-12-18T06:23:48.829Z,98829.13
2022-12-18T06:27:51.467Z,98821.59
2022-12-18T06:31:55.587Z,98822.31
2022-12-18T06:36:02.677Z,98824.88
2022-12-18T06:40:06.236Z,98815.50
2022-12-18T06:44:08.915Z,98816.47
2022-12-18T06:48:13.556Z,98825.31
2022-12-18T06:52:16.175Z,98825.94
2022-12-18T06:56:18.863Z,98832.28
2022-12-18T07:00:21.506Z,98850.72
2022-12-18T07:04:29.872Z,98849.09
2022-12-18T07:08:32.685Z,98854.91
2022-12-18T07:12:35.432Z,98856.69
2022-12-18T07:16:38.117Z,98855.59
2022-12-18T07:20:42.105Z,98871.41
2022-12-18T07:24:44.749Z,98866.22
2022-12-18T07:28:48.200Z,98858.03
2022-12-18T07:32:50.833Z,98848.25
2022-12-18T07:36:54.835Z,98842.03
2022-12-18T07:41:02.563Z,98854.50
2022-12-18T07:45:06.056Z,98846.47
2022-12-18T07:49:09.020Z,98859.31
2022-12-18T07:53:13.033Z,98854.31
2022-12-18T07:57:48.442Z,98871.72
2022-12-18T08:01:40.177Z,98868.47
2022-12-18T08:05:42.928Z,98857.31
2022-12-18T08:09:46.921Z,98866.84
2022-12-18T08:13:49.673Z,98877.94
2022-12-18T08:17:52.509Z,98879.38
2022-12-18T08:21:55.229Z,98887.19
2022-12-18T08:26:00.271Z,98888.84
2022-12-18T08:30:03.833Z,98892.19
2022-12-18T08:34:07.026Z,98899.56
2022-12-18T08:38:09.623Z,98910.25
2022-12-18T08:42:30.919Z,98913.28
2022-12-18T08:46:37.214Z,98910.75
2022-12-18T08:50:39.980Z,98901.97
2022-12-18T08:54:42.636Z,98916.69
2022-12-18T08:58:46.658Z,98920.34
2022-12-18T09:02:49.395Z,98919.94
2022-12-18T09:06:52.325Z,98920.09
2022-12-18T09:10:55.247Z,98921.38
2022-12-18T09:14:59.345Z,98914.38
2022-12-18T09:19:02.895Z,98911.03
2022-12-18T09:23:06.305Z,98905.38
2022-12-18T09:27:08.954Z,98908.19
2022-12-18T09:31:18.100Z,98902.13
2022-12-18T09:35:20.832Z,98894.03
2022-12-18T09:39:24.420Z,98902.91
2022-12-18T09:43:32.563Z,98896.69
2022-12-18T09:47:41.313Z,98900.19
2022-12-18T09:51:49.335Z,98897.31
2022-12-18T09:55:54.085Z,98894.41
2022-12-18T10:00:01.183Z,98896.34
2022-12-18T10:04:07.531Z,98875.19
2022-12-18T10:08:15.660Z,98880.53
2022-12-18T10:12:26.721Z,98882.25
2022-12-18T10:16:42.627Z,98875.19
2022-12-18T10:20:51.200Z,98881.22
2022-12-18T10:25:00.736Z,98876.66
2022-12-18T10:29:05.800Z,98875.16
2022-12-18T10:33:13.395Z,98881.53
2022-12-18T10:37:20.406Z,98867.16
2022-12-18T10:41:27.827Z,98864.19
2022-12-18T10:45:32.144Z,98857.81
2022-12-18T10:49:37.020Z,98848.44
2022-12-18T10:53:43.706Z,98858.13
2022-12-18T10:57:46.513Z,98851.47
2022-12-18T11:01:52.188Z,98856.41
2022-12-18T11:06:04.357Z,98848.06
2022-12-18T11:10:19.370Z,98856.25
2022-12-18T11:14:25.462Z,98856.94
2022-12-18T11:18:31.816Z,98859.00
2022-12-18T11:22:37.155Z,98864.38
2022-12-18T11:26:44.264Z,98873.13
2022-12-18T11:30:47.577Z,98862.03
2022-12-18T11:34:59.032Z,98860.34
2022-12-18T11:39:07.931Z,98858.22
2022-12-18T11:43:16.907Z,98859.75
2022-12-18T11:47:29.379Z,98859.34
2022-12-18T11:51:37.300Z,98854.31
2022-12-18T11:55:49.562Z,98857.72
2022-12-18T12:00:02.091Z,98858.41
2022-12-18T12:04:26.954Z,98865.06
2022-12-18T12:08:42.812Z,98854.25
2022-12-18T12:13:06.527Z,98843.41
2022-12-18T12:17:19.972Z,98829.53
2022-12-18T12:21:30.569Z,98822.31
2022-12-18T12:25:42.749Z,98817.97
2022-12-18T12:29:57.125Z,98815.13
2022-12-18T12:34:10.841Z,98814.97
2022-12-18T12:38:17.878Z,98818.13
2022-12-18T12:42:50.789Z,98815.34
2022-12-18T12:46:54.670Z,98817.22
2022-12-18T12:51:00.504Z,98806.66
2022-12-18T12:55:10.267Z,98833.81
2022-12-18T12:59:25.149Z,98822.56
2022-12-18T13:03:43.291Z,98811.41
2022-12-18T13:07:54.186Z,98806.31
2022-12-18T13:12:22.376Z,98803.66
2022-12-18T13:16:26.879Z,98811.59
2022-12-18T13:20:36.596Z,98815.09
2022-12-18T13:24:40.623Z,98822.31
2022-12-18T13:28:55.920Z,98816.88
2022-12-18T13:34:02.019Z,98818.63
2022-12-18T13:38:22.357Z,98810.06
2022-12-18T13:42:59.915Z,98814.41
2022-12-18T13:47:04.572Z,98812.38
2022-12-18T13:51:10.070Z,98812.84
2022-12-18T13:55:20.358Z,98793.78
2022-12-18T13:59:26.446Z,98797.72
2022-12-18T14:03:31.352Z,98794.53
2022-12-18T14:07:39.914Z,98803.16
2022-12-18T14:12:16.302Z,98812.84
2022-12-18T14:16:22.173Z,98799.66
2022-12-18T14:20:26.203Z,98795.31
2022-12-18T14:24:38.325Z,98793.56
2022-12-18T14:28:45.583Z,98796.75
2022-12-18T14:33:03.787Z,98801.88
2022-12-18T14:37:07.916Z,98787.56
2022-12-18T14:41:15.580Z,98773.28
2022-12-18T14:45:43.431Z,98780.00
2022-12-18T14:49:47.794Z,98782.00
2022-12-18T14:53:56.190Z,98791.47
2022-12-18T14:57:59.773Z,98793.41
2022-12-18T15:02:11.505Z,98794.66
2022-12-18T15:06:26.278Z,98790.19
2022-12-18T15:10:31.900Z,98802.19
2022-12-18T15:14:40.618Z,98797.53
2022-12-18T15:18:46.119Z,98797.78
2022-12-18T15:22:50.221Z,98802.31
2022-12-18T15:26:52.945Z,98802.19
2022-12-18T15:31:07.984Z,98810.66
2022-12-18T15:35:16.833Z,98803.69
2022-12-18T15:39:20.867Z,98797.94
2022-12-18T15:43:37.742Z,98808.06
2022-12-18T15:47:40.732Z,98815.47
2022-12-18T15:51:43.510Z,98823.16
2022-12-18T15:56:06.910Z,98820.00
2022-12-18T16:00:14.187Z,98811.69
2022-12-18T16:04:19.515Z,98815.56
2022-12-18T16:08:22.256Z,98814.94
2022-12-18T16:12:26.513Z,98809.91
2022-12-18T16:16:29.245Z,98816.31
2022-12-18T16:20:32.598Z,98814.63
2022-12-18T16:24:37.070Z,98806.03
2022-12-18T16:28:45.299Z,98808.97
2022-12-18T16:32:51.490Z,98800.75
2022-12-18T16:36:56.209Z,98793.22
2022-12-18T16:41:19.507Z,98794.44
2022-12-18T16:45:23.564Z,98791.22
2022-12-18T16:49:26.222Z,98784.66
2022-12-18T16:53:29.968Z,98797.81
2022-12-18T16:57:32.751Z,98792.72
2022-12-18T17:01:36.907Z,98798.13
2022-12-18T17:05:39.637Z,98787.88
2022-12-18T17:09:42.376Z,98790.75
2022-12-18T17:13:45.204Z,98802.47
2022-12-18T17:17:50.266Z,98795.78
2022-12-18T17:21:53.221Z,98796.97
2022-12-18T17:25:57.109Z,98798.00
2022-12-18T17:29:59.743Z,98797.09
2022-12-18T17:34:04.677Z,98804.25
2022-12-18T17:38:07.361Z,98804.47
2022-12-18T17:42:14.956Z,98802.03
2022-12-18T17:46:18.427Z,98791.41
2022-12-18T17:50:22.443Z,98790.69
2022-12-18T17:54:25.183Z,98776.91
2022-12-18T17:58:28.112Z,98783.94
2022-12-18T18:02:31.145Z,98782.44
2022-12-18T18:06:36.272Z,98779.03
2022-12-18T18:10:42.738Z,98765.25
2022-12-18T18:14:45.382Z,98767.41
2022-12-18T18:18:48.347Z,98772.91
2022-12-18T18:22:52.488Z,98774.31
2022-12-18T18:26:59.523Z,98781.28
2022-12-18T18:31:05.985Z,98772.69
2022-12-18T18:35:19.347Z,98785.53
2022-12-18T18:39:33.554Z,98781.34
2022-12-18T18:43:36.939Z,98784.69
2022-12-18T18:47:39.557Z,98786.41
2022-12-18T18:51:42.960Z,98798.03
2022-12-18T18:55:55.155Z,98795.41
2022-12-18T19:00:08.123Z,98784.06
2022-12-18T19:04:11.176Z,98793.13
2022-12-18T19:08:13.800Z,98788.31
2022-12-18T19:12:38.468Z,98774.56
2022-12-18T19:16:45.450Z,98770.72
2022-12-18T19:20:56.596Z,98758.81
2022-12-18T19:24:59.470Z,98760.94
2022-12-18T19:29:04.369Z,98759.44
2022-12-18T19:33:26.770Z,98759.72
2022-12-18T19:37:30.311Z,98767.59
2022-12-18T19:41:33.073Z,98759.88
2022-12-18T19:45:39.758Z,98759.78
2022-12-18T19:49:42.559Z,98752.69
2022-12-18T19:53:45.868Z,98750.84
2022-12-18T19:57:48.782Z,98751.72
2022-12-18T20:01:54.829Z,98758.66
2022-12-18T20:05:58.042Z,98761.09
2022-12-18T20:10:08.484Z,98742.50
2022-12-18T20:14:12.518Z,98741.31
2022-12-18T20:18:16.588Z,98757.63
2022-12-18T20:22:20.466Z,98749.63
2022-12-18T20:26:23.265Z,98766.81
2022-12-18T20:30:26.151Z,98769.44
2022-12-18T20:34:30.361Z,98765.91
2022-12-18T20:38:34.543Z,98760.56
2022-12-18T20:42:37.799Z,98760.97
2022-12-18T20:46:40.495Z,98767.81
2022-12-18T20:50:44.470Z,98750.28
2022-12-18T20:54:47.278Z,98740.25
2022-12-18T20:58:51.300Z,98744.44
2022-12-18T21:02:57.903Z,98746.78
2022-12-18T21:07:02.954Z,98739.59
2022-12-18T21:11:30.771Z,98747.25
2022-12-18T21:15:33.552Z,98757.34
2022-12-18T21:19:36.500Z,98752.09
2022-12-18T21:23:40.582Z,98732.63
2022-12-18T21:27:43.247Z,98737.44
2022-12-18T21:31:46.557Z,98731.25
2022-12-18T21:35:49.291Z,98733.81
2022-12-18T21:39:53.366Z,98740.19
2022-12-18T21:44:08.200Z,98725.03
2022-12-18T21:48:12.174Z,98726.50
2022-12-18T21:52:14.949Z,98702.72
2022-12-18T21:56:19.029Z,98698.88
2022-12-18T22:00:21.835Z,98688.22
2022-12-18T22:04:25.605Z,98711.41
2022-12-18T22:08:28.497Z,98704.47
2022-12-18T22:12:44.219Z,98705.16
2022-12-18T22:16:48.986Z,98692.53
2022-12-18T22:21:01.982Z,98695.00
2022-12-18T22:25:05.071Z,98679.22
2022-12-18T22:29:44.109Z,98679.66
2022-12-18T22:33:46.769Z,98672.53
2022-12-18T22:37:49.509Z,98680.19
2022-12-18T22:41:52.888Z,98683.00
2022-12-18T22:45:56.936Z,98665.41
2022-12-18T22:49:59.895Z,98660.84
2022-12-18T22:54:02.503Z,98647.50
2022-12-18T22:58:05.183Z,98648.38
2022-12-18T23:02:09.474Z,98643.75
2022-12-18T23:06:12.409Z,98630.44
2022-12-18T23:10:15.047Z,98616.50
2022-12-18T23:14:17.978Z,98618.19
2022-12-18T23:18:22.378Z,98629.28
2022-12-18T23:22:25.006Z,98628.56
2022-12-18T23:26:28.554Z,98643.34
2022-12-18T23:30:32.448Z,98645.75
2022-12-18T23:34:36.543Z,98648.41
2022-12-18T23:38:39.829Z,98646.69
2022-12-18T23:42:42.455Z,98635.75
2022-12-18T23:46:45.112Z,98614.94
2022-12-18T23:50:49.112Z,98608.72
2022-12-18T23:54:51.765Z,98625.88
2022-12-18T23:58:54.497Z,98621.47
